createdAt,value
2022-08-21T00:01:55.367Z,1.30
2022-08-21T00:04:29.459Z,1.30
2022-08-21T00:06:59.597Z,1.23
2022-08-21T00:09:27.182Z,1.23
2022-08-21T00:11:54.537Z,1.27
2022-08-21T00:14:22.145Z,1.30
2022-08-21T00:16:49.480Z,1.13
2022-08-21T00:19:17.119Z,1.50
2022-08-21T00:21:44.772Z,1.40
2022-08-21T00:24:13.121Z,1.58
2022-08-21T00:26:40.496Z,1.00
2022-08-21T00:29:07.999Z,1.20
2022-08-21T00:31:35.340Z,1.25
2022-08-21T00:34:03.358Z,1.38
2022-08-21T00:36:31.167Z,1.52
2022-08-21T00:38:58.664Z,1.20
2022-08-21T00:41:37.346Z,1.10
2022-08-21T00:44:14.764Z,1.20
2022-08-21T00:46:44.194Z,1.02
2022-08-21T00:49:14.071Z,1.30
2022-08-21T00:51:59.105Z,1.23
2022-08-21T00:54:30.720Z,1.20
2022-08-21T00:57:08.498Z,1.30
2022-08-21T00:59:41.199Z,1.25
2022-08-21T01:02:10.986Z,1.30
2022-08-21T01:04:38.508Z,1.92
2022-08-21T01:07:06.452Z,1.70
2022-08-21T01:09:34.165Z,1.48
2022-08-21T01:12:01.945Z,1.33
2022-08-21T01:14:29.669Z,1.23
2022-08-21T01:17:00.133Z,1.48
2022-08-21T01:21:56.532Z,1.95
2022-08-21T01:24:25.347Z,1.60
2022-08-21T01:26:53.556Z,1.67
2022-08-21T01:29:45.309Z,1.30
2022-08-21T01:34:51.535Z,1.35
2022-08-21T01:37:22.554Z,1.33
2022-08-21T01:39:50.333Z,1.40
2022-08-21T01:42:18.236Z,1.40
2022-08-21T01:44:45.909Z,1.33
2022-08-21T01:47:16.508Z,1.60
2022-08-21T01:49:46.216Z,1.70
2022-08-21T01:52:13.933Z,1.60
2022-08-21T01:54:42.726Z,1.75
2022-08-21T01:57:11.288Z,1.55
2022-08-21T01:59:38.709Z,1.70
2022-08-21T02:02:06.858Z,1.48
2022-08-21T02:04:38.419Z,1.70
2022-08-21T02:07:07.103Z,1.48
2022-08-21T02:09:37.621Z,1.67
2022-08-21T02:12:08.029Z,1.80
2022-08-21T02:14:35.345Z,1.40
2022-08-21T02:17:09.501Z,1.30
2022-08-21T02:19:40.714Z,1.33
2022-08-21T02:22:13.477Z,1.77
2022-08-21T02:24:53.839Z,1.92
2022-08-21T02:27:27.431Z,1.67
2022-08-21T02:29:58.845Z,1.83
2022-08-21T02:32:27.260Z,2.00
2022-08-21T02:34:54.908Z,2.10
2022-08-21T02:37:24.016Z,2.28
2022-08-21T02:39:51.694Z,2.10
2022-08-21T02:42:19.174Z,2.45
2022-08-21T02:44:46.551Z,2.55
2022-08-21T02:47:15.280Z,2.90
2022-08-21T02:49:42.734Z,2.45
2022-08-21T02:52:10.299Z,3.83
2022-08-21T02:54:37.623Z,3.20
2022-08-21T02:57:05.067Z,4.38
2022-08-21T02:59:33.138Z,5.18
2022-08-21T03:02:00.550Z,4.57
2022-08-21T03:04:27.915Z,6.30
2022-08-21T03:06:55.232Z,5.15
2022-08-21T03:09:22.540Z,7.07
2022-08-21T03:11:49.954Z,7.13
2022-08-21T03:14:17.276Z,5.82
2022-08-21T03:16:45.404Z,6.25
2022-08-21T03:19:14.035Z,7.10
2022-08-21T03:21:41.339Z,6.40
2022-08-21T03:24:10.959Z,7.30
2022-08-21T03:26:38.636Z,6.32
2022-08-21T03:29:08.733Z,7.53
2022-08-21T03:31:36.329Z,6.90
2022-08-21T03:34:03.780Z,6.20
2022-08-21T03:36:31.137Z,5.85
2022-08-21T03:38:58.665Z,6.10
2022-08-21T03:41:25.961Z,5.65
2022-08-21T03:43:53.289Z,5.68
2022-08-21T03:46:20.595Z,5.88
2022-08-21T03:48:48.053Z,7.07
2022-08-21T03:51:16.497Z,6.60
2022-08-21T03:53:43.808Z,7.43
2022-08-21T03:56:11.204Z,6.38
2022-08-21T03:58:39.331Z,6.35
2022-08-21T04:01:07.428Z,6.95
2022-08-21T04:03:38.371Z,6.97
2022-08-21T04:06:07.049Z,7.10
2022-08-21T04:08:34.959Z,6.50
2022-08-21T04:11:02.615Z,7.38
2022-08-21T04:13:30.764Z,6.20
2022-08-21T04:15:59.559Z,7.05
2022-08-21T04:18:27.057Z,6.90
2022-08-21T04:20:57.097Z,7.40
2022-08-21T04:23:26.801Z,6.32
2022-08-21T04:25:57.569Z,7.35
2022-08-21T04:28:29.261Z,6.40
2022-08-21T04:30:59.203Z,7.07
2022-08-21T04:33:30.192Z,7.97
2022-08-21T04:35:57.514Z,7.45
2022-08-21T04:38:24.872Z,7.57
2022-08-21T04:40:53.828Z,8.50
2022-08-21T04:43:24.176Z,8.32
2022-08-21T04:45:53.381Z,8.70
2022-08-21T04:48:27.796Z,8.80
2022-08-21T04:51:20.991Z,8.80
2022-08-21T04:54:09.744Z,9.10
2022-08-21T04:57:00.441Z,8.35
2022-08-21T04:59:47.667Z,8.40
2022-08-21T05:02:15.501Z,7.28
2022-08-21T05:04:55.243Z,6.88
2022-08-21T05:07:41.902Z,6.93
2022-08-21T05:10:12.643Z,6.90
2022-08-21T05:12:43.575Z,6.75
2022-08-21T05:15:14.520Z,6.00
2022-08-21T05:17:42.878Z,6.75
2022-08-21T05:20:15.691Z,6.47
2022-08-21T05:22:43.566Z,7.05
2022-08-21T05:25:12.472Z,6.68
2022-08-21T05:27:40.640Z,6.80
2022-08-21T05:30:12.091Z,7.63
2022-08-21T05:32:39.467Z,7.18
2022-08-21T05:35:09.431Z,6.45
2022-08-21T05:37:37.097Z,7.38
2022-08-21T05:40:22.468Z,7.00
2022-08-21T05:42:56.094Z,7.22
2022-08-21T05:45:42.995Z,7.63
2022-08-21T05:48:22.093Z,7.90
2022-08-21T05:50:53.017Z,7.70
2022-08-21T05:53:24.279Z,8.30
2022-08-21T05:55:53.049Z,7.82
2022-08-21T05:58:23.882Z,8.50
2022-08-21T06:00:53.758Z,10.40
2022-08-21T06:03:33.008Z,9.88
2022-08-21T06:06:01.065Z,10.95
2022-08-21T06:08:29.504Z,9.60
2022-08-21T06:11:01.594Z,9.85
2022-08-21T06:13:29.905Z,11.05
2022-08-21T06:16:17.127Z,11.02
2022-08-21T06:18:46.490Z,10.25
2022-08-21T06:21:14.927Z,9.65
2022-08-21T06:23:43.887Z,8.25
2022-08-21T06:26:14.548Z,8.07
2022-08-21T06:28:44.250Z,8.27
2022-08-21T06:31:24.775Z,7.80
2022-08-21T06:36:23.463Z,6.68
2022-08-21T06:38:51.966Z,7.70
2022-08-21T06:41:24.098Z,7.30
2022-08-21T06:43:55.793Z,7.57
2022-08-21T06:46:26.998Z,6.57
2022-08-21T06:48:54.658Z,7.68
2022-08-21T06:51:22.956Z,6.45
2022-08-21T06:53:50.587Z,7.15
2022-08-21T06:56:18.252Z,6.15
2022-08-21T06:58:45.857Z,6.68
2022-08-21T07:01:13.324Z,6.57
2022-08-21T07:03:44.510Z,6.93
2022-08-21T07:06:13.017Z,7.35
2022-08-21T07:08:40.789Z,7.38
2022-08-21T07:11:22.419Z,8.52
2022-08-21T07:13:53.553Z,8.32
2022-08-21T07:16:24.594Z,8.52
2022-08-21T07:18:51.913Z,7.95
2022-08-21T07:21:25.189Z,8.63
2022-08-21T07:23:53.856Z,8.40
2022-08-21T07:26:24.515Z,8.43
2022-08-21T07:28:52.700Z,8.68
2022-08-21T07:31:25.071Z,7.75
2022-08-21T07:33:53.149Z,8.73
2022-08-21T07:36:20.968Z,8.18
2022-08-21T07:38:49.043Z,8.52
2022-08-21T07:41:30.014Z,8.20
2022-08-21T07:43:59.108Z,7.03
2022-08-21T07:46:27.908Z,7.15
2022-08-21T07:48:55.752Z,7.72
2022-08-21T07:51:28.969Z,6.38
2022-08-21T07:54:00.088Z,7.20
2022-08-21T07:56:31.369Z,7.45
2022-08-21T07:58:58.841Z,6.63
2022-08-21T08:01:26.641Z,6.25
2022-08-21T08:03:54.010Z,5.63
2022-08-21T08:06:21.353Z,4.63
2022-08-21T08:08:48.773Z,4.38
2022-08-21T08:11:17.193Z,3.70
2022-08-21T08:13:52.232Z,3.78
2022-08-21T08:16:21.704Z,3.80
2022-08-21T08:18:49.081Z,3.10
2022-08-21T08:21:17.213Z,3.60
2022-08-21T08:23:46.137Z,4.18
2022-08-21T08:26:13.633Z,3.90
2022-08-21T08:28:40.984Z,3.85
2022-08-21T08:31:08.296Z,3.25
2022-08-21T08:33:35.604Z,3.85
2022-08-21T08:36:08.129Z,3.70
2022-08-21T08:38:35.960Z,3.47
2022-08-21T08:41:23.681Z,3.67
2022-08-21T08:43:59.624Z,2.90
2022-08-21T08:46:51.472Z,3.00
2022-08-21T08:49:53.225Z,3.20
2022-08-21T08:52:51.061Z,2.60
2022-08-21T08:55:37.776Z,2.60
2022-08-21T08:58:05.368Z,2.10
2022-08-21T09:00:34.192Z,2.60
2022-08-21T09:03:05.501Z,2.20
2022-08-21T09:05:54.805Z,2.72
2022-08-21T09:09:06.283Z,2.65
2022-08-21T09:12:45.609Z,2.42
2022-08-21T09:16:00.301Z,2.30
2022-08-21T09:19:24.861Z,2.13
2022-08-21T09:22:26.160Z,2.83
2022-08-21T09:25:33.480Z,2.25
2022-08-21T09:28:00.928Z,2.30
2022-08-21T09:30:33.701Z,2.33
2022-08-21T09:33:01.396Z,2.42
2022-08-21T09:35:28.947Z,1.65
2022-08-21T09:38:09.083Z,1.67
2022-08-21T09:40:48.524Z,2.08
2022-08-21T09:46:23.743Z,1.77
2022-08-21T09:48:58.207Z,1.88
2022-08-21T09:51:37.168Z,2.30
2022-08-21T09:54:10.070Z,2.30
2022-08-21T09:57:34.556Z,1.73
2022-08-21T10:00:32.173Z,1.90
2022-08-21T10:03:28.969Z,1.40
2022-08-21T10:06:09.350Z,1.42
2022-08-21T10:08:41.851Z,1.13
2022-08-21T10:11:18.195Z,1.42
2022-08-21T10:14:33.256Z,1.42
2022-08-21T10:18:10.688Z,0.95
2022-08-21T10:21:12.037Z,0.75
2022-08-21T10:24:31.668Z,1.20
2022-08-21T10:27:56.081Z,0.77
2022-08-21T10:31:08.960Z,1.27
2022-08-21T10:34:29.075Z,0.82
2022-08-21T10:37:26.761Z,0.90
2022-08-21T10:40:46.227Z,0.60
2022-08-21T10:43:46.998Z,0.70
2022-08-21T10:47:30.512Z,0.55
2022-08-21T10:50:17.385Z,1.17
2022-08-21T10:53:54.168Z,0.70
2022-08-21T10:56:29.989Z,1.02
2022-08-21T10:59:56.587Z,0.68
2022-08-21T11:02:43.580Z,0.75
2022-08-21T11:05:59.079Z,0.60
2022-08-21T11:08:47.794Z,0.82
2022-08-21T11:11:59.546Z,0.60
2022-08-21T11:15:28.922Z,0.80
2022-08-21T11:18:28.107Z,0.70
2022-08-21T11:21:34.563Z,0.70
2022-08-21T11:25:01.551Z,1.05
2022-08-21T11:28:17.588Z,0.95
2022-08-21T11:31:18.268Z,1.20
2022-08-21T11:34:20.911Z,0.90
2022-08-21T11:37:59.386Z,0.98
2022-08-21T11:41:43.024Z,1.00
2022-08-21T11:44:41.161Z,0.70
2022-08-21T11:48:13.325Z,0.90
2022-08-21T11:50:45.562Z,1.10
2022-08-21T11:53:40.154Z,0.90
2022-08-21T11:56:23.660Z,0.90
2022-08-21T11:59:01.594Z,1.00
2022-08-21T12:01:41.687Z,0.88
2022-08-21T12:04:30.736Z,1.10
2022-08-21T12:07:29.507Z,1.10
2022-08-21T12:10:00.551Z,1.17
2022-08-21T12:12:40.221Z,1.27
2022-08-21T12:15:28.536Z,0.98
2022-08-21T12:18:34.105Z,0.90
2022-08-21T12:21:23.643Z,0.88
2022-08-21T12:24:15.806Z,0.73
2022-08-21T12:27:15.140Z,1.08
2022-08-21T12:30:19.913Z,0.98
2022-08-21T12:33:33.130Z,0.77
2022-08-21T12:36:46.572Z,0.75
2022-08-21T12:39:26.231Z,0.98
2022-08-21T12:42:25.108Z,0.68
2022-08-21T12:45:18.471Z,0.70
2022-08-21T12:48:00.859Z,0.68
2022-08-21T12:51:16.252Z,0.60
2022-08-21T12:53:58.896Z,0.50
2022-08-21T12:56:33.233Z,0.80
2022-08-21T12:59:13.131Z,0.77
2022-08-21T13:01:52.522Z,0.65
2022-08-21T13:04:41.736Z,0.57
2022-08-21T13:07:17.063Z,0.60
2022-08-21T13:10:08.351Z,0.60
2022-08-21T13:12:36.963Z,0.82
2022-08-21T13:15:08.951Z,0.60
2022-08-21T13:17:50.667Z,0.60
2022-08-21T13:20:29.277Z,0.80
2022-08-21T13:22:56.732Z,0.65
2022-08-21T13:25:36.547Z,0.88
2022-08-21T13:28:15.811Z,0.70
2022-08-21T13:30:56.812Z,0.70
2022-08-21T13:33:35.197Z,0.68
2022-08-21T13:36:27.072Z,0.70
2022-08-21T13:38:55.652Z,0.65
2022-08-21T13:41:46.915Z,0.60
2022-08-21T13:44:36.815Z,0.68
2022-08-21T13:47:07.301Z,0.65
2022-08-21T13:49:47.087Z,0.70
2022-08-21T13:52:27.703Z,0.90
2022-08-21T13:55:08.873Z,0.52
2022-08-21T13:57:38.404Z,0.70
2022-08-21T14:00:28.692Z,0.80
2022-08-21T14:03:12.497Z,0.82
2022-08-21T14:05:47.246Z,0.80
2022-08-21T14:08:38.393Z,0.80
2022-08-21T14:11:10.571Z,0.73
2022-08-21T14:13:58.814Z,0.80
2022-08-21T14:16:47.481Z,0.85
2022-08-21T14:19:41.897Z,0.80
2022-08-21T14:22:44.470Z,1.00
2022-08-21T14:25:20.941Z,1.00
2022-08-21T14:28:19.563Z,0.82
2022-08-21T14:30:51.375Z,0.57
2022-08-21T14:33:32.796Z,0.80
2022-08-21T14:36:02.795Z,0.95
2022-08-21T14:41:22.586Z,0.80
2022-08-21T14:43:59.793Z,0.70
2022-08-21T14:46:35.113Z,0.50
2022-08-21T14:49:04.688Z,0.85
2022-08-21T14:51:32.257Z,0.50
2022-08-21T14:53:59.669Z,0.80
2022-08-21T14:56:27.457Z,0.75
2022-08-21T14:59:06.820Z,0.77
2022-08-21T15:01:39.668Z,0.60
2022-08-21T15:04:07.818Z,0.80
2022-08-21T15:06:35.217Z,0.70
2022-08-21T15:09:04.985Z,0.93
2022-08-21T15:11:42.540Z,1.00
2022-08-21T15:14:22.708Z,1.17
2022-08-21T15:16:51.420Z,1.00
2022-08-21T15:19:19.710Z,0.90
2022-08-21T15:21:47.347Z,1.30
2022-08-21T15:24:14.824Z,0.93
2022-08-21T15:26:42.567Z,1.50
2022-08-21T15:29:10.281Z,1.10
2022-08-21T15:31:50.354Z,1.17
2022-08-21T15:34:18.332Z,0.90
2022-08-21T15:36:45.811Z,1.00
2022-08-21T15:39:14.198Z,1.30
2022-08-21T15:41:41.768Z,1.23
2022-08-21T15:44:13.340Z,0.90
2022-08-21T15:46:42.255Z,1.40
2022-08-21T15:49:09.799Z,1.13
2022-08-21T15:51:38.339Z,0.98
2022-08-21T15:54:10.993Z,1.40
2022-08-21T15:56:43.372Z,1.33
2022-08-21T15:59:22.765Z,1.13
2022-08-21T16:01:53.791Z,1.17
2022-08-21T16:04:28.411Z,1.13
2022-08-21T16:07:01.000Z,1.25
2022-08-21T16:09:29.301Z,1.45
2022-08-21T16:11:56.803Z,1.08
2022-08-21T16:14:24.176Z,1.45
2022-08-21T16:16:52.668Z,1.58
2022-08-21T16:19:21.691Z,1.25
2022-08-21T16:21:49.011Z,1.03
2022-08-21T16:24:16.360Z,1.40
2022-08-21T16:26:43.855Z,1.25
2022-08-21T16:29:11.629Z,0.95
2022-08-21T16:31:39.838Z,1.17
2022-08-21T16:34:07.577Z,1.10
2022-08-21T16:36:34.896Z,1.50
2022-08-21T16:39:02.608Z,0.90
2022-08-21T16:41:35.307Z,1.27
2022-08-21T16:44:05.785Z,1.02
2022-08-21T16:46:40.936Z,1.15
2022-08-21T16:49:10.067Z,1.10
2022-08-21T16:51:38.281Z,1.30
2022-08-21T16:54:05.758Z,1.20
2022-08-21T16:56:33.780Z,1.30
2022-08-21T16:59:01.980Z,1.13
2022-08-21T17:01:35.010Z,1.20
2022-08-21T17:04:03.313Z,1.10
2022-08-21T17:06:31.264Z,1.38
2022-08-21T17:09:01.122Z,1.27
2022-08-21T17:11:45.512Z,1.23
2022-08-21T17:14:22.334Z,1.30
2022-08-21T17:16:56.718Z,0.98
2022-08-21T17:19:24.444Z,1.10
2022-08-21T17:21:51.815Z,0.90
2022-08-21T17:24:19.140Z,0.80
2022-08-21T17:26:47.825Z,1.00
2022-08-21T17:29:16.098Z,0.90
2022-08-21T17:31:44.572Z,0.90
2022-08-21T17:34:13.000Z,1.10
2022-08-21T17:36:40.319Z,1.05
2022-08-21T17:39:07.856Z,1.30
2022-08-21T17:41:35.578Z,1.42
2022-08-21T17:44:11.703Z,1.23
2022-08-21T17:46:42.693Z,1.48
2022-08-21T17:49:11.717Z,1.88
2022-08-21T17:51:43.496Z,1.58
2022-08-21T17:54:10.967Z,1.50
2022-08-21T17:56:42.255Z,1.42
2022-08-21T17:59:10.626Z,1.50
2022-08-21T18:01:46.797Z,2.00
2022-08-21T18:04:15.499Z,1.40
2022-08-21T18:06:44.792Z,1.70
2022-08-21T18:09:13.560Z,1.73
2022-08-21T18:11:43.679Z,1.42
2022-08-21T18:14:12.181Z,1.70
2022-08-21T18:16:39.757Z,1.45
2022-08-21T18:19:16.285Z,1.73
2022-08-21T18:21:44.329Z,1.77
2022-08-21T18:24:11.729Z,1.42
2022-08-21T18:26:41.750Z,1.42
2022-08-21T18:29:16.831Z,1.30
2022-08-21T18:31:46.539Z,1.40
2022-08-21T18:34:43.043Z,1.13
2022-08-21T18:37:10.570Z,1.42
2022-08-21T18:39:38.235Z,1.27
2022-08-21T18:42:15.237Z,1.60
2022-08-21T18:44:49.094Z,1.42
2022-08-21T18:47:33.583Z,1.75
2022-08-21T18:50:01.422Z,1.70
2022-08-21T18:52:30.665Z,1.42
2022-08-21T18:54:58.118Z,1.80
2022-08-21T18:57:34.118Z,1.58
2022-08-21T19:00:08.893Z,1.48
2022-08-21T19:02:36.297Z,1.45
2022-08-21T19:05:06.304Z,1.50
2022-08-21T19:07:34.129Z,1.60
2022-08-21T19:10:27.715Z,1.80
2022-08-21T19:12:50.262Z,1.40
2022-08-21T19:15:21.946Z,1.33
2022-08-21T19:17:53.344Z,1.70
2022-08-21T19:20:32.691Z,1.30
2022-08-21T19:23:01.356Z,1.27
2022-08-21T19:25:33.322Z,1.50
2022-08-21T19:28:10.980Z,1.73
2022-08-21T19:31:23.667Z,1.38
2022-08-21T19:34:08.437Z,1.40
2022-08-21T19:36:35.909Z,1.17
2022-08-21T19:39:08.203Z,1.70
2022-08-21T19:41:42.705Z,1.73
2022-08-21T19:44:20.767Z,1.98
2022-08-21T19:46:51.130Z,1.70
2022-08-21T19:49:29.062Z,1.85
2022-08-21T19:52:13.019Z,1.60
2022-08-21T19:54:46.362Z,1.80
2022-08-21T19:57:15.008Z,1.75
2022-08-21T19:59:44.204Z,1.35
2022-08-21T20:02:17.333Z,1.80
2022-08-21T20:04:53.742Z,1.45
2022-08-21T20:07:26.925Z,1.23
2022-08-21T20:09:56.569Z,1.20
2022-08-21T20:12:25.101Z,1.20
2022-08-21T20:14:53.139Z,1.42
2022-08-21T20:17:21.218Z,0.93
2022-08-21T20:19:54.400Z,0.95
2022-08-21T20:22:24.093Z,1.33
2022-08-21T20:24:52.715Z,1.00
2022-08-21T20:30:16.356Z,1.23
2022-08-21T20:32:50.381Z,0.93
2022-08-21T20:35:18.752Z,1.30
2022-08-21T20:37:46.768Z,1.10
2022-08-21T20:40:32.792Z,1.17
2022-08-21T20:43:02.574Z,1.52
2022-08-21T20:45:35.372Z,1.03
2022-08-21T20:48:24.135Z,1.13
2022-08-21T20:51:24.195Z,1.43
2022-08-21T20:54:23.797Z,1.15
2022-08-21T21:00:14.646Z,1.15
2022-08-21T21:04:05.062Z,0.98
2022-08-21T21:06:39.051Z,0.90
2022-08-21T21:09:40.168Z,1.30
2022-08-21T21:12:31.253Z,1.10
2022-08-21T21:15:14.084Z,1.00
2022-08-21T21:18:29.601Z,1.17
2022-08-21T21:21:51.691Z,1.55
2022-08-21T21:25:11.372Z,1.38
2022-08-21T21:28:08.472Z,1.10
2022-08-21T21:30:51.967Z,1.08
2022-08-21T21:33:25.624Z,1.05
2022-08-21T21:36:28.431Z,1.40
2022-08-21T21:39:52.682Z,1.13
2022-08-21T21:43:16.461Z,1.30
2022-08-21T21:46:39.208Z,1.23
2022-08-21T21:50:29.748Z,1.02
2022-08-21T21:53:12.587Z,1.00
2022-08-21T21:56:40.456Z,1.40
2022-08-21T21:59:58.961Z,1.60
2022-08-21T22:03:25.568Z,1.40
2022-08-21T22:06:13.037Z,1.35
2022-08-21T22:09:03.534Z,1.20
2022-08-21T22:12:03.633Z,1.23
2022-08-21T22:14:40.863Z,1.58
2022-08-21T22:17:33.325Z,1.65
2022-08-21T22:20:40.617Z,1.80
2022-08-21T22:23:18.812Z,1.35
2022-08-21T22:25:55.793Z,1.52
2022-08-21T22:28:27.069Z,1.33
2022-08-21T22:34:19.461Z,1.20
2022-08-21T22:37:01.317Z,1.50
2022-08-21T22:39:41.199Z,1.45
2022-08-21T22:42:27.418Z,1.73
2022-08-21T22:45:12.080Z,1.60
2022-08-21T22:47:47.399Z,1.60
2022-08-21T22:50:26.961Z,1.30
2022-08-21T22:53:05.972Z,1.67
2022-08-21T22:55:54.888Z,1.65
2022-08-21T22:58:58.800Z,1.67
2022-08-21T23:01:28.854Z,1.67
2022-08-21T23:04:12.212Z,1.40
2022-08-21T23:06:59.084Z,1.30
2022-08-21T23:09:48.329Z,1.65
2022-08-21T23:12:43.765Z,1.85
2022-08-21T23:15:18.231Z,1.55
2022-08-21T23:18:26.383Z,1.80
2022-08-21T23:21:57.885Z,1.63
2022-08-21T23:25:29.107Z,1.88
2022-08-21T23:28:54.440Z,2.00
2022-08-21T23:32:24.919Z,1.27
2022-08-21T23:36:22.358Z,1.60
2022-08-21T23:39:28.735Z,1.88
2022-08-21T23:43:09.280Z,1.50
2022-08-21T23:46:45.457Z,1.70
2022-08-21T23:50:33.986Z,1.98
2022-08-21T23:53:28.210Z,1.75
2022-08-21T23:57:02.639Z,1.55
